createdAt,value
2019-01-23T00:00:43.196Z,35.05
2019-01-23T00:01:30.429Z,34.35
2019-01-23T00:02:06.342Z,33.67
2019-01-23T00:02:41.955Z,37.28
2019-01-23T00:03:17.492Z,36.95
2019-01-23T00:03:53.241Z,36.68
2019-01-23T00:04:28.785Z,35.23
2019-01-23T00:05:04.715Z,36.25
2019-01-23T00:05:40.269Z,34.58
2019-01-23T00:06:15.964Z,35.78
2019-01-23T00:06:51.690Z,35.28
2019-01-23T00:07:27.358Z,33.75
2019-01-23T00:08:02.969Z,36.33
2019-01-23T00:08:38.638Z,36.38
2019-01-23T00:09:14.238Z,36.70
2019-01-23T00:09:49.780Z,32.85
2019-01-23T00:10:25.517Z,35.52
2019-01-23T00:11:02.528Z,37.88
2019-01-23T00:11:38.495Z,36.13
2019-01-23T00:12:14.215Z,37.33
2019-01-23T00:12:49.814Z,36.60
2019-01-23T00:13:25.652Z,38.55
2019-01-23T00:14:01.300Z,35.25
2019-01-23T00:14:37.001Z,34.48
2019-01-23T00:15:12.673Z,33.65
2019-01-23T00:15:48.439Z,36.40
2019-01-23T00:16:24.271Z,35.68
2019-01-23T00:16:59.824Z,34.85
2019-01-23T00:17:35.552Z,36.30
2019-01-23T00:18:11.152Z,33.73
2019-01-23T00:18:46.851Z,38.02
2019-01-23T00:19:22.494Z,36.95
2019-01-23T00:19:58.372Z,37.42
2019-01-23T00:20:34.123Z,34.18
2019-01-23T00:21:09.950Z,37.25
2019-01-23T00:21:45.570Z,35.80
2019-01-23T00:22:21.392Z,34.95
2019-01-23T00:22:57.060Z,35.63
2019-01-23T00:23:32.669Z,37.23
2019-01-23T00:24:08.348Z,37.35
2019-01-23T00:24:43.939Z,37.48
2019-01-23T00:25:19.465Z,38.98
2019-01-23T00:25:55.298Z,37.00
2019-01-23T00:26:30.825Z,39.23
2019-01-23T00:27:06.489Z,38.80
2019-01-23T00:27:42.199Z,37.85
2019-01-23T00:28:17.835Z,36.80
2019-01-23T00:28:53.392Z,39.33
2019-01-23T00:29:29.231Z,37.98
2019-01-23T00:30:06.075Z,39.27
2019-01-23T00:30:41.837Z,39.05
2019-01-23T00:31:17.519Z,37.85
2019-01-23T00:31:53.101Z,38.70
2019-01-23T00:32:28.756Z,38.67
2019-01-23T00:33:04.467Z,37.23
2019-01-23T00:33:40.073Z,34.23
2019-01-23T00:34:15.664Z,37.15
2019-01-23T00:34:51.400Z,37.03
2019-01-23T00:35:27.143Z,36.08
2019-01-23T00:36:02.720Z,37.63
2019-01-23T00:36:38.300Z,36.70
2019-01-23T00:37:13.913Z,38.25
2019-01-23T00:37:49.555Z,38.53
2019-01-23T00:38:25.085Z,38.10
2019-01-23T00:39:00.813Z,36.77
2019-01-23T00:39:36.565Z,37.30
2019-01-23T00:40:12.101Z,37.17
2019-01-23T00:40:47.643Z,37.98
2019-01-23T00:41:23.252Z,36.48
2019-01-23T00:41:58.831Z,35.25
2019-01-23T00:42:34.541Z,36.53
2019-01-23T00:43:10.204Z,36.13
2019-01-23T00:43:45.901Z,36.73
2019-01-23T00:44:21.730Z,35.75
2019-01-23T00:44:57.275Z,36.58
2019-01-23T00:45:33.119Z,35.30
2019-01-23T00:46:08.701Z,35.35
2019-01-23T00:46:44.394Z,36.75
2019-01-23T00:47:19.934Z,36.70
2019-01-23T00:47:55.628Z,36.35
2019-01-23T00:48:31.413Z,36.65
2019-01-23T00:49:07.045Z,37.50
2019-01-23T00:49:43.061Z,36.80
2019-01-23T00:50:18.927Z,38.95
2019-01-23T00:50:54.657Z,36.85
2019-01-23T00:51:30.240Z,36.63
2019-01-23T00:52:06.047Z,36.05
2019-01-23T00:52:41.758Z,36.93
2019-01-23T00:53:17.398Z,35.75
2019-01-23T00:53:53.007Z,38.92
2019-01-23T00:54:28.678Z,35.28
2019-01-23T00:55:04.958Z,38.30
2019-01-23T00:55:40.638Z,33.90
2019-01-23T00:56:16.278Z,34.92
2019-01-23T00:56:52.019Z,38.55
2019-01-23T00:57:27.564Z,35.60
2019-01-23T00:58:03.179Z,37.10
2019-01-23T00:58:38.807Z,37.75
2019-01-23T00:59:14.371Z,39.85
2019-01-23T00:59:49.894Z,37.38
2019-01-23T01:00:26.711Z,37.93
2019-01-23T01:01:02.817Z,38.33
2019-01-23T01:01:38.438Z,37.53
2019-01-23T01:02:14.024Z,36.50
2019-01-23T01:02:49.868Z,35.90
2019-01-23T01:03:25.408Z,35.80
2019-01-23T01:04:00.971Z,36.68
2019-01-23T01:04:36.625Z,35.68
2019-01-23T01:05:12.613Z,36.63
2019-01-23T01:05:48.491Z,36.77
2019-01-23T01:06:24.233Z,33.10
2019-01-23T01:06:59.795Z,34.58
2019-01-23T01:07:35.400Z,29.92
2019-01-23T01:08:11.444Z,30.48
2019-01-23T01:08:47.045Z,31.97
2019-01-23T01:09:22.634Z,30.27
2019-01-23T01:09:58.290Z,31.45
2019-01-23T01:10:33.916Z,33.38
2019-01-23T01:11:09.485Z,32.00
2019-01-23T01:11:45.004Z,33.55
2019-01-23T01:12:20.608Z,33.28
2019-01-23T01:12:56.231Z,32.17
2019-01-23T01:13:31.948Z,32.63
2019-01-23T01:14:07.615Z,35.00
2019-01-23T01:14:43.358Z,32.30
2019-01-23T01:15:19.279Z,32.35
2019-01-23T01:15:54.918Z,33.67
2019-01-23T01:16:30.456Z,33.48
2019-01-23T01:17:06.411Z,32.88
2019-01-23T01:17:42.026Z,33.78
2019-01-23T01:18:17.673Z,31.00
2019-01-23T01:18:53.329Z,34.40
2019-01-23T01:19:29.094Z,31.97
2019-01-23T01:20:05.578Z,32.17
2019-01-23T01:20:41.243Z,34.45
2019-01-23T01:21:16.998Z,33.25
2019-01-23T01:21:52.741Z,33.48
2019-01-23T01:22:28.262Z,32.55
2019-01-23T01:23:04.105Z,31.95
2019-01-23T01:23:39.843Z,32.60
2019-01-23T01:24:15.764Z,31.45
2019-01-23T01:24:51.558Z,34.60
2019-01-23T01:25:27.199Z,32.00
2019-01-23T01:26:02.754Z,32.25
2019-01-23T01:26:38.322Z,33.05
2019-01-23T01:27:13.932Z,32.03
2019-01-23T01:27:49.559Z,32.88
2019-01-23T01:28:25.220Z,31.27
2019-01-23T01:29:00.849Z,31.10
2019-01-23T01:29:36.741Z,32.28
2019-01-23T01:30:18.039Z,31.45
2019-01-23T01:30:53.776Z,30.25
2019-01-23T01:31:29.630Z,30.25
2019-01-23T01:32:05.258Z,31.95
2019-01-23T01:32:41.014Z,29.05
2019-01-23T01:33:16.834Z,32.48
2019-01-23T01:33:52.474Z,32.60
2019-01-23T01:34:28.012Z,33.00
2019-01-23T01:35:03.605Z,30.52
2019-01-23T01:35:39.195Z,31.30
2019-01-23T01:36:14.841Z,32.38
2019-01-23T01:36:50.387Z,32.53
2019-01-23T01:37:26.106Z,32.35
2019-01-23T01:38:01.803Z,31.45
2019-01-23T01:38:37.261Z,32.05
2019-01-23T01:39:12.894Z,34.40
2019-01-23T01:39:48.429Z,31.75
2019-01-23T01:40:24.161Z,32.03
2019-01-23T01:40:59.660Z,33.10
2019-01-23T01:41:35.243Z,33.25
2019-01-23T01:42:11.076Z,32.25
2019-01-23T01:42:46.611Z,30.15
2019-01-23T01:43:22.515Z,33.13
2019-01-23T01:43:58.174Z,32.40
2019-01-23T01:44:33.889Z,32.75
2019-01-23T01:45:10.083Z,35.58
2019-01-23T01:45:45.734Z,33.05
2019-01-23T01:46:21.444Z,32.73
2019-01-23T01:46:57.135Z,35.30
2019-01-23T01:47:32.910Z,33.55
2019-01-23T01:48:08.561Z,37.20
2019-01-23T01:48:44.359Z,35.65
2019-01-23T01:49:19.931Z,32.67
2019-01-23T01:49:55.556Z,34.20
2019-01-23T01:50:31.194Z,32.75
2019-01-23T01:51:06.975Z,33.55
2019-01-23T01:51:42.667Z,31.33
2019-01-23T01:52:18.204Z,33.88
2019-01-23T01:52:53.845Z,30.75
2019-01-23T01:53:29.465Z,31.30
2019-01-23T01:54:05.080Z,31.57
2019-01-23T01:54:40.852Z,30.43
2019-01-23T01:55:16.870Z,28.85
2019-01-23T01:55:52.479Z,31.77
2019-01-23T01:56:28.429Z,30.70
2019-01-23T01:57:04.107Z,32.20
2019-01-23T01:57:39.921Z,30.52
2019-01-23T01:58:15.587Z,33.63
2019-01-23T01:58:51.347Z,31.20
2019-01-23T01:59:26.878Z,29.35
2019-01-23T02:00:02.390Z,31.48
2019-01-23T02:00:38.601Z,30.00
2019-01-23T02:01:14.085Z,31.75
2019-01-23T02:01:49.840Z,31.27
2019-01-23T02:02:25.631Z,31.07
2019-01-23T02:03:01.238Z,31.05
2019-01-23T02:03:36.919Z,32.15
2019-01-23T02:04:12.560Z,32.63
2019-01-23T02:04:48.114Z,33.02
2019-01-23T02:05:23.678Z,31.17
2019-01-23T02:05:59.339Z,31.60
2019-01-23T02:06:35.120Z,29.20
2019-01-23T02:07:10.687Z,30.95
2019-01-23T02:07:46.561Z,29.30
2019-01-23T02:08:22.206Z,27.82
2019-01-23T02:08:57.964Z,29.82
2019-01-23T02:09:35.572Z,28.35
2019-01-23T02:10:12.921Z,28.42
2019-01-23T02:10:48.564Z,28.27
2019-01-23T02:11:24.289Z,26.37
2019-01-23T02:11:59.954Z,28.52
2019-01-23T02:12:35.738Z,29.98
2019-01-23T02:13:11.392Z,28.35
2019-01-23T02:13:47.023Z,30.02
2019-01-23T02:14:22.762Z,29.00
2019-01-23T02:14:58.390Z,28.73
2019-01-23T02:15:34.103Z,27.73
2019-01-23T02:16:09.843Z,23.65
2019-01-23T02:16:45.520Z,30.23
2019-01-23T02:17:21.208Z,25.95
2019-01-23T02:17:56.906Z,28.38
2019-01-23T02:18:32.519Z,28.60
2019-01-23T02:19:08.077Z,29.52
2019-01-23T02:19:43.780Z,28.73
2019-01-23T02:20:27.089Z,30.43
2019-01-23T02:21:02.881Z,23.45
2019-01-23T02:21:38.726Z,25.90
2019-01-23T02:22:14.879Z,27.93
2019-01-23T02:22:50.696Z,27.75
2019-01-23T02:23:26.395Z,29.25
2019-01-23T02:24:02.250Z,30.08
2019-01-23T02:24:38.028Z,30.95
2019-01-23T02:25:14.142Z,29.25
2019-01-23T02:25:49.860Z,29.63
2019-01-23T02:26:25.630Z,27.40
2019-01-23T02:27:01.247Z,26.57
2019-01-23T02:27:36.980Z,25.68
2019-01-23T02:28:12.628Z,28.50
2019-01-23T02:28:48.572Z,29.23
2019-01-23T02:29:24.157Z,29.92
2019-01-23T02:29:59.942Z,28.87
2019-01-23T02:30:35.846Z,28.40
2019-01-23T02:31:11.548Z,28.80
2019-01-23T02:31:47.579Z,28.10
2019-01-23T02:32:23.221Z,29.15
2019-01-23T02:32:58.694Z,28.90
2019-01-23T02:33:34.360Z,29.05
2019-01-23T02:34:10.013Z,29.55
2019-01-23T02:34:46.204Z,28.15
2019-01-23T02:35:21.994Z,30.75
2019-01-23T02:35:57.573Z,30.52
2019-01-23T02:36:33.159Z,29.18
2019-01-23T02:37:08.890Z,28.20
2019-01-23T02:37:44.641Z,28.02
2019-01-23T02:38:20.347Z,28.83
2019-01-23T02:38:55.868Z,28.27
2019-01-23T02:39:31.719Z,29.85
2019-01-23T02:40:09.335Z,27.90
2019-01-23T02:40:45.072Z,28.45
2019-01-23T02:41:20.999Z,25.57
2019-01-23T02:41:56.949Z,30.27
2019-01-23T02:42:32.567Z,30.82
2019-01-23T02:43:08.163Z,30.72
2019-01-23T02:43:43.725Z,25.02
2019-01-23T02:44:19.523Z,28.60
2019-01-23T02:44:55.087Z,25.77
2019-01-23T02:45:30.631Z,27.98
2019-01-23T02:46:06.395Z,25.90
2019-01-23T02:46:42.351Z,25.20
2019-01-23T02:47:18.176Z,27.00
2019-01-23T02:47:53.780Z,29.95
2019-01-23T02:48:29.302Z,28.45
2019-01-23T02:49:05.164Z,29.40
2019-01-23T02:49:40.800Z,28.50
2019-01-23T02:50:16.598Z,26.62
2019-01-23T02:50:52.148Z,28.70
2019-01-23T02:51:27.685Z,30.23
2019-01-23T02:52:03.400Z,31.10
2019-01-23T02:52:39.180Z,29.70
2019-01-23T02:53:15.133Z,30.82
2019-01-23T02:53:50.748Z,28.02
2019-01-23T02:54:26.376Z,30.05
2019-01-23T02:55:02.120Z,29.82
2019-01-23T02:55:37.764Z,31.27
2019-01-23T02:56:13.377Z,29.57
2019-01-23T02:56:49.130Z,29.45
2019-01-23T02:57:24.834Z,28.10
2019-01-23T02:58:00.420Z,30.57
2019-01-23T02:58:36.025Z,30.62
2019-01-23T02:59:17.330Z,31.40
2019-01-23T02:59:48.991Z,29.05
2019-01-23T03:00:24.644Z,30.57
2019-01-23T03:01:00.346Z,29.07
2019-01-23T03:01:35.866Z,29.02
2019-01-23T03:02:11.385Z,30.65
2019-01-23T03:02:47.371Z,27.35
2019-01-23T03:03:22.957Z,30.05
2019-01-23T03:03:58.498Z,35.35
2019-01-23T03:04:34.260Z,27.30
2019-01-23T03:05:11.957Z,28.30
2019-01-23T03:05:47.651Z,29.12
2019-01-23T03:06:23.198Z,33.20
2019-01-23T03:06:59.104Z,33.25
2019-01-23T03:07:34.642Z,30.05
2019-01-23T03:08:10.263Z,31.62
2019-01-23T03:08:45.816Z,29.02
2019-01-23T03:09:21.385Z,29.80
2019-01-23T03:09:57.142Z,28.12
2019-01-23T03:10:32.942Z,31.73
2019-01-23T03:11:08.756Z,29.75
2019-01-23T03:11:44.496Z,28.83
2019-01-23T03:12:20.203Z,27.98
2019-01-23T03:12:55.854Z,29.35
2019-01-23T03:13:31.500Z,28.20
2019-01-23T03:14:07.355Z,27.75
2019-01-23T03:14:43.042Z,27.35
2019-01-23T03:15:19.136Z,26.25
2019-01-23T03:15:54.706Z,25.57
2019-01-23T03:16:30.536Z,23.20
2019-01-23T03:17:06.071Z,25.37
2019-01-23T03:17:41.582Z,26.05
2019-01-23T03:18:17.224Z,26.50
2019-01-23T03:18:52.914Z,19.32
2019-01-23T03:19:28.519Z,23.73
2019-01-23T03:20:04.245Z,22.80
2019-01-23T03:20:39.762Z,23.45
2019-01-23T03:21:15.396Z,25.37
2019-01-23T03:21:50.926Z,22.75
2019-01-23T03:22:26.463Z,27.20
2019-01-23T03:23:02.032Z,22.82
2019-01-23T03:23:37.847Z,24.23
2019-01-23T03:24:13.566Z,18.98
2019-01-23T03:24:49.163Z,21.52
2019-01-23T03:25:24.786Z,21.97
2019-01-23T03:26:00.496Z,20.90
2019-01-23T03:26:36.336Z,24.95
2019-01-23T03:27:11.996Z,18.75
2019-01-23T03:27:47.739Z,25.02
2019-01-23T03:28:23.267Z,24.72
2019-01-23T03:28:59.136Z,21.85
2019-01-23T03:29:35.116Z,24.37
2019-01-23T03:30:19.464Z,26.75
2019-01-23T03:30:55.124Z,23.38
2019-01-23T03:31:31.085Z,21.05
2019-01-23T03:32:06.870Z,20.70
2019-01-23T03:32:42.490Z,24.43
2019-01-23T03:33:18.430Z,18.12
2019-01-23T03:33:54.140Z,23.75
2019-01-23T03:34:29.701Z,23.52
2019-01-23T03:35:06.435Z,20.60
2019-01-23T03:35:42.207Z,23.45
2019-01-23T03:36:17.856Z,23.18
2019-01-23T03:36:53.668Z,23.67
2019-01-23T03:37:29.627Z,24.00
2019-01-23T03:38:05.391Z,24.15
2019-01-23T03:38:41.106Z,23.75
2019-01-23T03:39:16.763Z,25.23
2019-01-23T03:39:52.519Z,23.47
2019-01-23T03:40:28.307Z,26.10
2019-01-23T03:41:04.154Z,24.30
2019-01-23T03:41:39.702Z,23.38
2019-01-23T03:42:15.261Z,24.52
2019-01-23T03:42:50.963Z,24.32
2019-01-23T03:43:26.649Z,24.70
2019-01-23T03:44:02.245Z,24.82
2019-01-23T03:44:38.092Z,23.10
2019-01-23T03:45:14.575Z,25.75
2019-01-23T03:45:50.359Z,24.95
2019-01-23T03:46:26.142Z,24.25
2019-01-23T03:47:01.885Z,24.10
2019-01-23T03:47:37.529Z,24.50
2019-01-23T03:48:13.350Z,24.30
2019-01-23T03:48:49.147Z,24.92
2019-01-23T03:49:24.902Z,21.23
2019-01-23T03:50:00.689Z,23.35
2019-01-23T03:50:36.323Z,21.62
2019-01-23T03:51:12.155Z,21.52
2019-01-23T03:51:47.903Z,22.62
2019-01-23T03:52:23.475Z,20.92
2019-01-23T03:52:59.126Z,25.08
2019-01-23T03:53:34.781Z,21.30
2019-01-23T03:54:10.466Z,21.65
2019-01-23T03:54:46.005Z,23.10
2019-01-23T03:55:21.774Z,22.58
2019-01-23T03:55:57.487Z,22.82
2019-01-23T03:56:33.128Z,19.55
2019-01-23T03:57:08.755Z,22.20
2019-01-23T03:57:44.327Z,14.95
2019-01-23T03:58:19.911Z,18.17
2019-01-23T03:58:55.459Z,23.12
2019-01-23T03:59:32.282Z,21.97
2019-01-23T04:00:10.522Z,21.55
2019-01-23T04:00:46.479Z,24.30
2019-01-23T04:01:22.117Z,24.50
2019-01-23T04:01:57.868Z,21.10
2019-01-23T04:02:33.509Z,23.55
2019-01-23T04:03:09.177Z,24.32
2019-01-23T04:03:44.770Z,19.90
2019-01-23T04:04:20.390Z,20.30
2019-01-23T04:04:56.049Z,18.65
2019-01-23T04:05:31.570Z,22.98
2019-01-23T04:06:07.300Z,23.85
2019-01-23T04:06:43.209Z,23.35
2019-01-23T04:07:18.764Z,21.37
2019-01-23T04:07:54.530Z,25.55
2019-01-23T04:08:30.046Z,25.25
2019-01-23T04:09:08.601Z,24.27
2019-01-23T04:09:44.283Z,20.90
2019-01-23T04:10:20.009Z,22.52
2019-01-23T04:10:55.673Z,26.05
2019-01-23T04:11:31.407Z,25.75
2019-01-23T04:12:07.110Z,25.25
2019-01-23T04:12:42.896Z,24.87
2019-01-23T04:13:18.509Z,23.83
2019-01-23T04:13:54.373Z,24.45
2019-01-23T04:14:30.094Z,26.52
2019-01-23T04:15:09.511Z,21.20
2019-01-23T04:15:45.159Z,22.80
2019-01-23T04:16:20.790Z,23.20
2019-01-23T04:16:56.423Z,18.05
2019-01-23T04:17:32.166Z,26.97
2019-01-23T04:18:07.774Z,21.10
2019-01-23T04:18:43.482Z,19.55
2019-01-23T04:19:19.173Z,24.02
2019-01-23T04:19:54.918Z,22.85
2019-01-23T04:20:30.811Z,25.12
2019-01-23T04:21:06.681Z,24.82
2019-01-23T04:21:42.462Z,24.85
2019-01-23T04:22:18.295Z,23.62
2019-01-23T04:22:54.080Z,22.73
2019-01-23T04:23:29.728Z,21.75
2019-01-23T04:24:05.621Z,23.45
2019-01-23T04:24:41.450Z,23.80
2019-01-23T04:25:17.362Z,25.23
2019-01-23T04:25:53.063Z,24.72
2019-01-23T04:26:28.769Z,22.77
2019-01-23T04:27:04.580Z,26.20
2019-01-23T04:27:40.313Z,24.55
2019-01-23T04:28:16.343Z,22.50
2019-01-23T04:28:52.317Z,24.85
2019-01-23T04:29:27.905Z,26.65
2019-01-23T04:30:03.653Z,23.80
2019-01-23T04:30:39.371Z,26.27
2019-01-23T04:31:15.206Z,25.08
2019-01-23T04:31:51.017Z,24.47
2019-01-23T04:32:26.806Z,24.80
2019-01-23T04:33:02.388Z,25.45
2019-01-23T04:33:38.120Z,22.60
2019-01-23T04:34:13.982Z,23.45
2019-01-23T04:34:49.836Z,22.17
2019-01-23T04:35:25.495Z,24.67
2019-01-23T04:36:01.275Z,24.82
2019-01-23T04:36:37.118Z,25.20
2019-01-23T04:37:12.759Z,24.10
2019-01-23T04:37:48.571Z,25.62
2019-01-23T04:38:24.387Z,23.42
2019-01-23T04:39:00.066Z,25.95
2019-01-23T04:39:35.605Z,26.12
2019-01-23T04:40:11.868Z,27.87
2019-01-23T04:40:47.654Z,27.37
2019-01-23T04:41:23.350Z,25.32
2019-01-23T04:41:58.836Z,25.97
2019-01-23T04:42:34.500Z,25.32
2019-01-23T04:43:10.071Z,26.62
2019-01-23T04:43:46.041Z,27.85
2019-01-23T04:44:21.888Z,25.40
2019-01-23T04:44:57.556Z,23.75
2019-01-23T04:45:33.245Z,27.67
2019-01-23T04:46:09.179Z,15.10
2019-01-23T04:46:44.826Z,24.92
2019-01-23T04:47:20.501Z,25.60
2019-01-23T04:47:56.131Z,26.65
2019-01-23T04:48:31.729Z,25.40
2019-01-23T04:49:07.460Z,26.10
2019-01-23T04:49:43.302Z,21.97
2019-01-23T04:50:19.378Z,24.02
2019-01-23T04:51:12.171Z,26.12
2019-01-23T04:51:55.132Z,24.67
2019-01-23T04:52:38.343Z,25.65
2019-01-23T04:53:19.200Z,25.97
2019-01-23T04:53:55.129Z,25.43
2019-01-23T04:54:30.845Z,27.02
2019-01-23T04:55:07.011Z,29.75
2019-01-23T04:55:42.537Z,26.30
2019-01-23T04:56:18.405Z,24.47
2019-01-23T04:56:54.335Z,28.42
2019-01-23T04:57:29.939Z,24.75
2019-01-23T04:58:05.502Z,22.35
2019-01-23T04:58:41.356Z,25.75
2019-01-23T04:59:17.684Z,26.75
2019-01-23T04:59:53.391Z,24.55
2019-01-23T05:00:29.874Z,26.30
2019-01-23T05:01:05.833Z,27.13
2019-01-23T05:01:41.471Z,27.90
2019-01-23T05:02:17.199Z,26.02
2019-01-23T05:02:52.993Z,29.40
2019-01-23T05:03:28.990Z,26.02
2019-01-23T05:04:05.268Z,28.57
2019-01-23T05:04:41.052Z,29.23
2019-01-23T05:05:16.699Z,28.00
2019-01-23T05:05:52.382Z,27.67
2019-01-23T05:06:28.037Z,30.50
2019-01-23T05:07:03.927Z,30.05
2019-01-23T05:07:40.467Z,29.75
2019-01-23T05:08:16.241Z,26.90
2019-01-23T05:08:52.167Z,29.35
2019-01-23T05:09:28.044Z,26.23
2019-01-23T05:10:03.898Z,24.90
2019-01-23T05:10:39.735Z,27.15
2019-01-23T05:11:15.389Z,28.23
2019-01-23T05:11:51.139Z,27.67
2019-01-23T05:12:27.000Z,22.30
2019-01-23T05:13:02.780Z,27.30
2019-01-23T05:13:38.334Z,24.30
2019-01-23T05:14:13.993Z,27.73
2019-01-23T05:14:49.824Z,26.25
2019-01-23T05:15:25.499Z,22.67
2019-01-23T05:16:01.279Z,28.00
2019-01-23T05:16:37.077Z,30.80
2019-01-23T05:17:12.874Z,28.87
2019-01-23T05:17:48.879Z,27.48
2019-01-23T05:18:24.573Z,27.75
2019-01-23T05:19:00.416Z,30.72
2019-01-23T05:19:36.408Z,29.02
2019-01-23T05:20:13.026Z,30.80
2019-01-23T05:20:48.866Z,28.07
2019-01-23T05:21:24.377Z,26.15
2019-01-23T05:22:00.041Z,25.00
2019-01-23T05:22:35.793Z,27.15
2019-01-23T05:23:11.712Z,22.42
2019-01-23T05:23:47.326Z,27.15
2019-01-23T05:24:23.085Z,28.38
2019-01-23T05:24:58.722Z,28.20
2019-01-23T05:25:34.585Z,28.38
2019-01-23T05:26:10.403Z,29.60
2019-01-23T05:26:46.167Z,25.72
2019-01-23T05:27:22.325Z,26.45
2019-01-23T05:27:57.996Z,28.67
2019-01-23T05:28:33.648Z,25.60
2019-01-23T05:29:09.280Z,25.17
2019-01-23T05:29:45.243Z,27.25
2019-01-23T05:30:25.305Z,28.57
2019-01-23T05:31:00.970Z,29.52
2019-01-23T05:31:36.823Z,29.02
2019-01-23T05:32:12.707Z,28.67
2019-01-23T05:32:48.444Z,26.30
2019-01-23T05:33:24.282Z,28.12
2019-01-23T05:33:59.940Z,29.18
2019-01-23T05:34:35.703Z,28.77
2019-01-23T05:35:11.786Z,28.75
2019-01-23T05:35:47.553Z,29.72
2019-01-23T05:36:23.286Z,28.25
2019-01-23T05:36:58.907Z,28.67
2019-01-23T05:37:34.649Z,30.30
2019-01-23T05:38:10.280Z,28.87
2019-01-23T05:38:46.103Z,29.40
2019-01-23T05:39:21.747Z,30.52
2019-01-23T05:39:57.449Z,32.25
2019-01-23T05:40:33.139Z,31.27
2019-01-23T05:41:09.016Z,30.80
2019-01-23T05:41:44.896Z,29.20
2019-01-23T05:42:20.585Z,31.48
2019-01-23T05:42:56.402Z,30.02
2019-01-23T05:43:32.177Z,29.92
2019-01-23T05:44:07.841Z,32.13
2019-01-23T05:44:43.570Z,28.80
2019-01-23T05:45:19.465Z,30.23
2019-01-23T05:45:54.995Z,27.95
2019-01-23T05:46:30.808Z,29.92
2019-01-23T05:47:06.487Z,30.43
2019-01-23T05:47:42.249Z,27.98
2019-01-23T05:48:17.922Z,29.02
2019-01-23T05:48:53.775Z,28.40
2019-01-23T05:49:29.481Z,22.70
2019-01-23T05:50:05.493Z,29.37
2019-01-23T05:50:41.312Z,27.42
2019-01-23T05:51:17.164Z,28.57
2019-01-23T05:51:52.915Z,26.30
2019-01-23T05:52:28.735Z,27.37
2019-01-23T05:53:04.426Z,27.05
2019-01-23T05:53:40.482Z,28.62
2019-01-23T05:54:16.306Z,29.60
2019-01-23T05:54:52.124Z,32.42
2019-01-23T05:55:28.101Z,31.20
2019-01-23T05:56:04.246Z,29.40
2019-01-23T05:56:39.817Z,29.00
2019-01-23T05:57:15.572Z,30.37
2019-01-23T05:57:51.394Z,28.57
2019-01-23T05:58:27.273Z,30.68
2019-01-23T05:59:03.144Z,28.73
2019-01-23T05:59:39.012Z,24.95
2019-01-23T06:00:16.968Z,24.47
2019-01-23T06:00:52.979Z,24.75
2019-01-23T06:01:28.837Z,27.77
2019-01-23T06:02:04.859Z,25.75
2019-01-23T06:02:40.794Z,23.65
2019-01-23T06:03:16.877Z,21.80
2019-01-23T06:03:52.909Z,25.90
2019-01-23T06:04:28.699Z,21.85
2019-01-23T06:05:04.777Z,26.05
2019-01-23T06:05:40.495Z,23.60
2019-01-23T06:06:16.371Z,27.22
2019-01-23T06:06:52.362Z,26.73
2019-01-23T06:07:28.008Z,25.50
2019-01-23T06:08:03.825Z,25.55
2019-01-23T06:08:39.749Z,27.45
2019-01-23T06:09:19.097Z,23.22
2019-01-23T06:09:54.933Z,23.40
2019-01-23T06:10:30.740Z,25.27
2019-01-23T06:11:06.409Z,24.12
2019-01-23T06:11:42.423Z,24.90
2019-01-23T06:12:18.924Z,24.52
2019-01-23T06:12:54.913Z,25.05
2019-01-23T06:13:30.950Z,21.87
2019-01-23T06:14:06.841Z,24.95
2019-01-23T06:14:42.847Z,23.77
2019-01-23T06:15:18.817Z,21.57
2019-01-23T06:15:54.962Z,19.42
2019-01-23T06:16:30.895Z,22.67
2019-01-23T06:17:06.953Z,23.42
2019-01-23T06:17:42.877Z,17.37
2019-01-23T06:18:18.725Z,24.65
2019-01-23T06:18:54.464Z,22.73
2019-01-23T06:19:30.608Z,24.70
2019-01-23T06:20:09.012Z,25.02
2019-01-23T06:20:45.100Z,24.45
2019-01-23T06:21:21.040Z,19.70
2019-01-23T06:21:58.081Z,19.90
2019-01-23T06:22:33.780Z,26.85
2019-01-23T06:23:09.344Z,24.75
2019-01-23T06:23:45.240Z,24.23
2019-01-23T06:24:21.430Z,23.15
2019-01-23T06:24:57.454Z,25.85
2019-01-23T06:25:33.423Z,24.60
2019-01-23T06:26:09.393Z,26.00
2019-01-23T06:26:45.152Z,25.97
2019-01-23T06:27:21.665Z,26.30
2019-01-23T06:27:57.418Z,25.85
2019-01-23T06:28:33.380Z,25.85
2019-01-23T06:29:09.513Z,22.82
2019-01-23T06:29:45.433Z,24.12
2019-01-23T06:30:26.312Z,23.80
2019-01-23T06:31:02.139Z,25.88
2019-01-23T06:31:37.747Z,23.77
2019-01-23T06:32:13.492Z,21.07
2019-01-23T06:32:49.244Z,25.32
2019-01-23T06:33:25.138Z,21.87
2019-01-23T06:34:01.131Z,22.77
2019-01-23T06:34:37.023Z,20.75
2019-01-23T06:35:13.147Z,21.33
2019-01-23T06:35:49.066Z,22.13
2019-01-23T06:36:25.354Z,22.73
2019-01-23T06:37:01.366Z,21.65
2019-01-23T06:37:37.276Z,22.07
2019-01-23T06:38:13.090Z,19.52
2019-01-23T06:38:48.788Z,15.18
2019-01-23T06:39:24.389Z,21.07
2019-01-23T06:40:00.243Z,21.93
2019-01-23T06:40:36.329Z,22.65
2019-01-23T06:41:12.101Z,16.90
2019-01-23T06:41:47.913Z,25.02
2019-01-23T06:42:23.672Z,23.77
2019-01-23T06:42:59.216Z,24.18
2019-01-23T06:43:35.063Z,25.48
2019-01-23T06:44:11.007Z,25.88
2019-01-23T06:44:47.064Z,25.12
2019-01-23T06:45:23.115Z,22.80
2019-01-23T06:45:58.843Z,22.67
2019-01-23T06:46:34.576Z,24.40
2019-01-23T06:47:10.614Z,27.32
2019-01-23T06:47:46.598Z,24.60
2019-01-23T06:48:22.353Z,22.80
2019-01-23T06:48:58.348Z,21.80
2019-01-23T06:49:34.008Z,25.12
2019-01-23T06:50:12.822Z,23.85
2019-01-23T06:50:49.276Z,19.75
2019-01-23T06:51:25.124Z,19.02
2019-01-23T06:52:01.001Z,23.42
2019-01-23T06:52:36.865Z,23.18
2019-01-23T06:53:14.251Z,19.05
2019-01-23T06:53:50.512Z,23.90
2019-01-23T06:54:26.237Z,24.12
2019-01-23T06:55:01.986Z,23.05
2019-01-23T06:55:37.733Z,23.67
2019-01-23T06:56:13.616Z,23.27
2019-01-23T06:56:49.260Z,25.52
2019-01-23T06:57:25.393Z,23.75
2019-01-23T06:58:01.344Z,25.12
2019-01-23T06:58:36.990Z,25.52
2019-01-23T06:59:12.678Z,26.42
2019-01-23T06:59:48.373Z,21.62
2019-01-23T07:00:26.232Z,23.62
2019-01-23T07:01:02.399Z,24.90
2019-01-23T07:01:38.245Z,24.30
2019-01-23T07:02:14.504Z,22.50
2019-01-23T07:02:50.520Z,19.98
2019-01-23T07:03:26.357Z,23.22
2019-01-23T07:04:02.239Z,23.57
2019-01-23T07:04:38.077Z,24.70
2019-01-23T07:05:14.399Z,16.20
2019-01-23T07:05:50.174Z,24.40
2019-01-23T07:06:26.603Z,27.17
2019-01-23T07:07:02.370Z,22.35
2019-01-23T07:07:38.578Z,24.00
2019-01-23T07:08:14.349Z,23.38
2019-01-23T07:08:49.988Z,25.27
2019-01-23T07:09:25.653Z,25.25
2019-01-23T07:10:01.509Z,25.92
2019-01-23T07:10:37.187Z,22.30
2019-01-23T07:11:13.042Z,27.27
2019-01-23T07:11:48.775Z,23.42
2019-01-23T07:12:24.375Z,24.90
2019-01-23T07:13:00.407Z,27.65
2019-01-23T07:13:36.253Z,25.15
2019-01-23T07:14:12.186Z,23.52
2019-01-23T07:14:48.317Z,20.80
2019-01-23T07:15:24.510Z,25.00
2019-01-23T07:16:00.262Z,16.85
2019-01-23T07:16:36.029Z,15.25
2019-01-23T07:17:11.770Z,25.80
2019-01-23T07:17:47.616Z,25.97
2019-01-23T07:18:23.554Z,24.40
2019-01-23T07:18:59.336Z,25.08
2019-01-23T07:19:35.519Z,22.70
2019-01-23T07:20:14.769Z,22.02
2019-01-23T07:20:50.878Z,22.37
2019-01-23T07:21:27.041Z,21.42
2019-01-23T07:22:03.389Z,19.67
2019-01-23T07:22:39.480Z,23.15
2019-01-23T07:23:15.573Z,22.30
2019-01-23T07:23:51.434Z,23.98
2019-01-23T07:24:28.437Z,23.05
2019-01-23T07:25:04.421Z,24.92
2019-01-23T07:25:40.317Z,23.52
2019-01-23T07:26:16.110Z,19.82
2019-01-23T07:26:52.070Z,21.10
2019-01-23T07:27:27.895Z,23.57
2019-01-23T07:28:03.647Z,22.48
2019-01-23T07:28:39.416Z,20.60
2019-01-23T07:29:15.749Z,23.95
2019-01-23T07:29:51.484Z,22.50
2019-01-23T07:30:32.942Z,23.07
2019-01-23T07:31:08.921Z,24.35
2019-01-23T07:31:45.124Z,22.48
2019-01-23T07:32:21.149Z,26.15
2019-01-23T07:32:57.038Z,24.80
2019-01-23T07:33:32.934Z,25.65
2019-01-23T07:34:08.972Z,22.65
2019-01-23T07:34:44.765Z,26.37
2019-01-23T07:35:20.687Z,25.35
2019-01-23T07:35:56.480Z,22.82
2019-01-23T07:36:32.464Z,25.43
2019-01-23T07:37:08.874Z,24.90
2019-01-23T07:37:44.733Z,25.48
2019-01-23T07:38:20.406Z,26.40
2019-01-23T07:38:56.226Z,27.48
2019-01-23T07:39:32.296Z,27.40
2019-01-23T07:40:11.682Z,25.55
2019-01-23T07:40:47.585Z,26.93
2019-01-23T07:41:23.820Z,28.32
2019-01-23T07:41:59.466Z,26.87
2019-01-23T07:42:35.274Z,23.38
2019-01-23T07:43:11.499Z,19.07